Terminal Aerodrome Forecast
Issued by NWS

Home | Current Version | Previous Version | Text Only | Print | Product List | Glossary On
Versions: 1 2 3 4 5 6 7 8 9 10 11 12 13 14 15 16 17
183
FTUS45 KABQ 210520
TAFGUP
TAF
KGUP 210520Z 2106/2206 VRB03KT P6SM SKC
     FM212000 24012G20KT P6SM BKN200
     FM220100 21007KT P6SM BKN180=

USA.gov is the U.S. government's official web portal to all federal, state and local government web resources and services.